Time;durP1;ratioP1;P1;durP2;ratioP2;P2;SDS_P1;SDS_P2;PMS_P1;PMS_P2;Temp;Humidity;BMP_temperature;BMP_pressure;BME280_temperature;BME280_humidity;BME280_pressure;Samples;Min_cycle;Max_cycle;Signal;HPM_P1;HPM_P2
2021/04/27 00:00:30;;;;;;;2.05;1.58;;;;;;;11.83;69.44;93164.56;5092763;28;20031;-39
2021/04/27 00:02:55;;;;;;;0.30;0.30;;;;;;;11.92;68.53;93154.91;5093265;28;20032;-39
2021/04/27 00:05:21;;;;;;;0.38;0.38;;;;;;;11.70;69.45;93167.59;5092920;28;20031;-39
2021/04/27 00:07:46;;;;;;;0.60;0.60;;;;;;;11.85;68.86;93164.72;5093190;28;20108;-38
2021/04/27 00:10:13;;;;;;;0.60;0.60;;;;;;;11.93;68.86;93168.16;5092831;28;20035;-38
2021/04/27 00:12:39;;;;;;;1.70;1.60;;;;;;;11.86;68.77;93168.97;5092810;28;20060;-38
2021/04/27 00:15:11;;;;;;;0.95;0.95;;;;;;;11.71;70.68;93171.84;5093091;28;20059;-41
2021/04/27 00:17:37;;;;;;;1.85;1.65;;;;;;;11.69;70.66;93159.84;5092753;28;20508;-39
2021/04/27 00:20:04;;;;;;;0.35;0.35;;;;;;;11.49;70.99;93150.56;5092066;28;20028;-39
2021/04/27 00:22:30;;;;;;;0.73;0.73;;;;;;;11.56;71.37;93173.94;5092633;28;20039;-39
2021/04/27 00:24:56;;;;;;;1.65;1.55;;;;;;;11.58;71.60;93161.00;5102723;28;20036;-38
2021/04/27 00:27:21;;;;;;;3.40;1.27;;;;;;;11.22;72.34;93157.88;5112662;28;20035;-38
2021/04/27 00:29:46;;;;;;;0.63;0.60;;;;;;;11.46;72.03;93165.47;5113118;28;20027;-38
2021/04/27 00:32:12;;;;;;;0.40;0.40;;;;;;;11.61;71.12;93162.63;5112686;28;20057;-39
2021/04/27 00:34:37;;;;;;;0.60;0.60;;;;;;;11.58;71.82;93168.56;5112974;28;20074;-38
2021/04/27 00:37:03;;;;;;;2.13;1.42;;;;;;;11.37;72.26;93166.09;5112459;27;20503;-38
2021/04/27 00:39:28;;;;;;;0.98;0.98;;;;;;;11.28;72.44;93161.19;5112650;28;20039;-40
2021/04/27 00:41:54;;;;;;;1.42;1.42;;;;;;;11.34;72.76;93167.97;5112605;27;20027;-38
2021/04/27 00:44:19;;;;;;;1.05;1.05;;;;;;;11.46;72.94;93159.97;5112488;28;20027;-38
2021/04/27 00:46:45;;;;;;;1.15;1.10;;;;;;;11.51;71.70;93158.28;5112407;28;20027;-38
2021/04/27 00:49:10;;;;;;;2.20;2.00;;;;;;;11.49;71.96;93164.38;5097737;28;20024;-39
2021/04/27 00:51:37;;;;;;;0.73;0.70;;;;;;;11.56;72.36;93166.38;5092286;28;20020;-38
2021/04/27 00:54:06;;;;;;;0.75;0.70;;;;;;;11.58;71.71;93161.00;5090738;28;20496;-39
2021/04/27 00:56:32;;;;;;;1.33;1.23;;;;;;;11.71;70.99;93166.31;5091061;28;20062;-38
2021/04/27 00:58:57;;;;;;;1.27;0.93;;;;;;;11.79;70.13;93160.72;5092636;28;20538;-39
2021/04/27 01:01:23;;;;;;;0.60;0.60;;;;;;;11.68;70.15;93153.59;5092198;28;20028;-39
2021/04/27 01:03:48;;;;;;;1.27;0.93;;;;;;;11.59;70.86;93151.41;5091743;28;20023;-39
2021/04/27 01:06:14;;;;;;;0.68;0.68;;;;;;;11.64;71.39;93150.47;5092847;28;20035;-39
2021/04/27 01:08:49;;;;;;;1.17;1.17;;;;;;;11.20;72.79;93135.59;5091382;28;20028;-39
2021/04/27 01:11:23;;;;;;;1.15;1.15;;;;;;;11.18;73.12;93152.00;5090494;28;20059;-39
2021/04/27 01:14:01;;;;;;;1.05;0.95;;;;;;;11.38;72.67;93142.69;5093280;28;20492;-39
2021/04/27 01:16:28;;;;;;;2.10;1.98;;;;;;;11.52;72.47;93143.16;5091610;28;20031;-39
2021/04/27 01:18:54;;;;;;;3.67;2.17;;;;;;;11.50;72.03;93129.88;5090672;28;20047;-38
2021/04/27 01:21:22;;;;;;;1.45;1.10;;;;;;;11.43;72.58;93136.22;5090610;28;20107;-39
2021/04/27 01:23:58;;;;;;;10.70;2.20;;;;;;;11.48;72.88;93140.06;5091111;28;20074;-39
2021/04/27 01:26:36;;;;;;;1.52;1.00;;;;;;;11.54;71.71;93137.81;5091431;28;20097;-39
2021/04/27 01:29:05;;;;;;;0.82;0.82;;;;;;;11.29;72.38;93132.97;5098038;28;20086;-38
2021/04/27 01:31:30;;;;;;;0.85;0.85;;;;;;;11.42;72.28;93118.16;5090436;28;20035;-38
2021/04/27 01:33:56;;;;;;;0.63;0.63;;;;;;;11.43;73.06;93127.94;5090519;28;20036;-39
2021/04/27 01:36:22;;;;;;;1.52;1.42;;;;;;;11.52;72.95;93140.41;5091405;28;20031;-39
2021/04/27 01:38:48;;;;;;;0.82;0.82;;;;;;;11.51;71.69;93136.16;5091599;28;20024;-40
2021/04/27 01:41:14;;;;;;;1.45;1.35;;;;;;;11.54;72.15;93160.66;5090400;28;20028;-40
2021/04/27 01:43:39;;;;;;;0.65;0.60;;;;;;;11.58;72.15;93140.91;5090738;28;20511;-39
2021/04/27 01:46:06;;;;;;;1.25;0.45;;;;;;;11.62;71.20;93144.75;5091500;28;20477;-39
2021/04/27 01:48:35;;;;;;;1.80;1.70;;;;;;;11.51;71.13;93136.16;5100757;28;20063;-40
2021/04/27 01:51:01;;;;;;;0.95;0.95;;;;;;;11.58;70.92;93143.69;5111293;28;20031;-39
2021/04/27 01:53:27;;;;;;;1.48;1.38;;;;;;;11.62;70.88;93139.22;5093885;27;20032;-40
2021/04/27 01:55:52;;;;;;;0.50;0.50;;;;;;;11.57;70.52;93129.13;5089999;28;20460;-40
2021/04/27 01:58:18;;;;;;;0.60;0.60;;;;;;;11.31;71.29;93122.09;5091024;28;20047;-40
2021/04/27 02:00:44;;;;;;;0.88;0.88;;;;;;;11.21;72.00;93132.28;5090803;28;20035;-39
2021/04/27 02:03:10;;;;;;;3.20;1.35;;;;;;;11.02;72.77;93134.75;5097892;28;20028;-40
2021/04/27 02:05:36;;;;;;;0.60;0.60;;;;;;;11.07;72.93;93133.06;5092953;28;20024;-40
2021/04/27 02:08:01;;;;;;;1.33;1.17;;;;;;;11.05;72.94;93135.66;5090820;28;20036;-41
2021/04/27 02:10:27;;;;;;;1.30;1.05;;;;;;;11.17;71.92;93128.44;5090538;28;20114;-40
2021/04/27 02:12:55;;;;;;;0.63;0.63;;;;;;;10.98;72.42;93133.69;5090572;28;20110;-39
2021/04/27 02:15:22;;;;;;;1.63;1.40;;;;;;;11.05;72.50;93135.66;5089663;28;20275;-39
2021/04/27 02:17:55;;;;;;;1.00;1.00;;;;;;;11.02;72.41;93126.47;5090660;28;20024;-38
2021/04/27 02:20:27;;;;;;;0.38;0.35;;;;;;;10.86;72.94;93119.53;5089592;28;20500;-38
2021/04/27 02:22:54;;;;;;;0.40;0.40;;;;;;;10.97;72.25;93119.13;5089249;28;20024;-38
2021/04/27 02:25:21;;;;;;;0.52;0.52;;;;;;;10.95;72.81;93118.97;5103428;28;20027;-38
2021/04/27 02:27:47;;;;;;;0.82;0.82;;;;;;;11.03;72.73;93124.44;5108505;28;20047;-38
2021/04/27 02:30:15;;;;;;;1.15;1.15;;;;;;;10.91;72.21;93120.63;5108916;28;20080;-39
2021/04/27 02:32:42;;;;;;;0.70;0.70;;;;;;;10.99;72.17;93129.63;5110118;28;20034;-38
2021/04/27 02:35:10;;;;;;;1.02;0.93;;;;;;;11.04;71.48;93128.69;5110754;28;20032;-38
2021/04/27 02:37:36;;;;;;;1.45;0.50;;;;;;;10.95;71.60;93115.47;5110851;28;20099;-38
2021/04/27 02:40:03;;;;;;;0.50;0.40;;;;;;;10.81;72.00;93131.53;5110770;28;20834;-38
2021/04/27 02:42:28;;;;;;;0.88;0.82;;;;;;;10.68;72.99;93134.50;5110482;28;20028;-38
2021/04/27 02:44:54;;;;;;;0.75;0.75;;;;;;;10.77;72.89;93120.13;5110760;27;20038;-39
2021/04/27 02:47:19;;;;;;;0.60;0.60;;;;;;;10.63;72.87;93119.63;5110560;28;20019;-39
2021/04/27 02:49:45;;;;;;;0.57;0.57;;;;;;;10.75;72.30;93114.44;5110262;28;20484;-39
2021/04/27 02:52:10;;;;;;;1.35;0.85;;;;;;;10.79;72.14;93116.81;5110225;28;20081;-39
2021/04/27 02:54:36;;;;;;;0.50;0.45;;;;;;;10.74;72.26;93106.72;5110412;28;20031;-39
2021/04/27 02:57:01;;;;;;;2.25;1.25;;;;;;;10.50;73.54;93083.94;5109855;28;20124;-39
2021/04/27 02:59:27;;;;;;;0.30;0.30;;;;;;;10.75;74.15;93103.38;5109942;28;20032;-39
2021/04/27 03:01:52;;;;;;;1.00;1.00;;;;;;;10.72;74.12;93101.00;5110195;28;20114;-39
2021/04/27 03:04:18;;;;;;;0.68;0.68;;;;;;;10.67;74.32;93110.97;5110223;28;20020;-39
2021/04/27 03:06:43;;;;;;;0.45;0.45;;;;;;;10.59;74.63;93110.25;5110279;28;20027;-39
2021/04/27 03:09:09;;;;;;;0.25;0.25;;;;;;;10.74;73.84;93112.25;5110277;28;20511;-39
2021/04/27 03:11:34;;;;;;;0.88;0.88;;;;;;;10.80;73.53;93112.75;5109950;28;20035;-38
2021/04/27 03:14:00;;;;;;;0.63;0.63;;;;;;;10.76;74.32;93104.88;5110063;28;20023;-39
2021/04/27 03:16:25;;;;;;;1.55;0.95;;;;;;;10.75;73.96;93097.88;5110302;28;20023;-38
2021/04/27 03:18:51;;;;;;;1.08;1.05;;;;;;;10.93;73.34;93126.34;5110087;28;20027;-38
2021/04/27 03:21:17;;;;;;;1.58;0.93;;;;;;;10.77;73.74;93111.09;5109016;28;20033;-39
2021/04/27 03:23:42;;;;;;;1.42;0.85;;;;;;;10.86;73.41;93113.28;5109778;28;20545;-39
2021/04/27 03:26:08;;;;;;;0.63;0.63;;;;;;;10.97;72.94;93121.16;5109429;28;20044;-38
2021/04/27 03:28:33;;;;;;;0.60;0.60;;;;;;;10.73;73.33;93119.78;5110174;28;20029;-38
2021/04/27 03:30:59;;;;;;;0.75;0.75;;;;;;;10.76;73.65;93123.47;5110113;28;20027;-38
2021/04/27 03:33:25;;;;;;;1.63;1.48;;;;;;;10.77;74.03;93124.91;5113389;28;20031;-39
2021/04/27 03:35:51;;;;;;;0.73;0.73;;;;;;;10.51;74.38;93115.78;5114028;28;20016;-38
2021/04/27 03:38:16;;;;;;;0.55;0.55;;;;;;;10.59;74.36;93127.53;5114301;28;20030;-38
2021/04/27 03:40:42;;;;;;;0.38;0.38;;;;;;;10.48;74.51;93130.69;5114158;28;20027;-39
2021/04/27 03:43:08;;;;;;;0.43;0.43;;;;;;;10.36;75.42;93135.16;5114012;28;20080;-39
2021/04/27 03:45:36;;;;;;;3.53;0.65;;;;;;;10.29;75.52;93129.63;5113823;28;20080;-38
2021/04/27 03:48:07;;;;;;;0.65;0.65;;;;;;;10.33;76.20;93136.25;5113746;28;20541;-38
2021/04/27 03:50:33;;;;;;;0.60;0.60;;;;;;;10.37;75.98;93138.66;5113768;28;20027;-38
2021/04/27 03:52:58;;;;;;;0.73;0.73;;;;;;;10.59;75.05;93127.53;5113608;28;20024;-39
2021/04/27 03:55:24;;;;;;;1.02;0.70;;;;;;;10.71;74.33;93111.31;5113923;28;20023;-38
2021/04/27 03:57:50;;;;;;;1.27;1.17;;;;;;;10.75;74.63;93127.50;5113502;28;20519;-37
2021/04/27 04:00:16;;;;;;;1.48;1.38;;;;;;;10.77;75.12;93127.66;5113432;28;20114;-38
2021/04/27 04:02:42;;;;;;;1.20;1.13;;;;;;;10.83;75.02;93136.50;5113791;28;20430;-38
2021/04/27 04:05:08;;;;;;;3.60;1.85;;;;;;;10.90;73.94;93132.97;5113158;28;20043;-38
2021/04/27 04:07:33;;;;;;;0.82;0.82;;;;;;;10.98;73.45;93153.03;5113368;28;20088;-38
2021/04/27 04:09:59;;;;;;;1.15;1.05;;;;;;;10.87;73.90;93153.44;5113210;28;20035;-40
2021/04/27 04:12:24;;;;;;;2.10;1.35;;;;;;;10.90;74.40;93147.50;5113527;28;20024;-39
2021/04/27 04:14:49;;;;;;;2.30;2.10;;;;;;;10.96;73.94;93136.28;5113503;28;20431;-39
2021/04/27 04:17:15;;;;;;;0.77;0.77;;;;;;;10.66;74.38;93129.56;5113426;28;20503;-38
2021/04/27 04:19:40;;;;;;;0.88;0.88;;;;;;;10.71;74.90;93140.94;5113146;28;20024;-38
2021/04/27 04:22:06;;;;;;;0.52;0.52;;;;;;;10.84;74.85;93147.00;5113181;28;20024;-39
2021/04/27 04:24:32;;;;;;;1.60;1.38;;;;;;;10.89;74.84;93148.81;5105840;28;20034;-38
2021/04/27 04:26:58;;;;;;;1.40;1.30;;;;;;;11.06;74.18;93164.78;5092294;28;20056;-39
2021/04/27 04:29:25;;;;;;;1.13;1.13;;;;;;;11.13;73.48;93175.06;5092886;28;20138;-38
2021/04/27 04:31:51;;;;;;;1.55;1.45;;;;;;;11.17;72.66;93159.56;5092806;28;20039;-38
2021/04/27 04:34:16;;;;;;;0.50;0.50;;;;;;;11.21;73.28;93161.94;5092360;28;20031;-38
2021/04/27 04:36:43;;;;;;;1.00;1.00;;;;;;;11.23;73.29;93170.41;5092679;28;20020;-39
2021/04/27 04:39:08;;;;;;;1.10;1.10;;;;;;;11.29;73.15;93170.91;5092420;28;20036;-38
2021/04/27 04:41:34;;;;;;;3.25;2.95;;;;;;;11.26;73.39;93167.25;5092702;28;20028;-38
2021/04/27 04:43:59;;;;;;;1.50;1.40;;;;;;;11.06;73.77;93164.78;5091564;28;20032;-38
2021/04/27 04:46:25;;;;;;;0.82;0.82;;;;;;;11.06;73.63;93156.47;5092530;28;20025;-38
2021/04/27 04:48:50;;;;;;;2.30;1.40;;;;;;;11.16;73.18;93154.59;5104455;28;20031;-39
2021/04/27 04:51:16;;;;;;;0.50;0.50;;;;;;;11.09;73.39;93147.06;5112839;28;20023;-39
2021/04/27 04:53:41;;;;;;;0.55;0.55;;;;;;;11.27;73.16;93138.31;5112195;28;20038;-39
2021/04/27 04:56:06;;;;;;;0.60;0.60;;;;;;;11.38;73.63;93131.63;5112619;28;20023;-40
2021/04/27 04:58:32;;;;;;;1.33;1.23;;;;;;;11.59;72.74;93136.84;5112667;28;20031;-38
2021/04/27 05:00:57;;;;;;;4.15;1.33;;;;;;;11.53;72.99;93120.47;5112578;27;20423;-39
2021/04/27 05:03:24;;;;;;;0.88;0.88;;;;;;;11.59;72.45;93109.94;5112636;28;20415;-40
2021/04/27 05:05:50;;;;;;;2.20;1.40;;;;;;;11.78;71.40;93101.88;5112120;28;20035;-39
2021/04/27 05:08:22;;;;;;;2.03;1.92;;;;;;;11.86;71.99;93107.38;5112443;28;20023;-38
2021/04/27 05:10:48;;;;;;;3.20;2.72;;;;;;;11.81;72.37;93109.06;5112104;28;20066;-39
2021/04/27 05:13:13;;;;;;;1.90;1.80;;;;;;;11.59;73.07;93128.53;5112394;28;20054;-39
2021/04/27 05:15:39;;;;;;;0.80;0.80;;;;;;;11.40;74.34;93123.50;5112117;28;20084;-40
2021/04/27 05:18:06;;;;;;;0.93;0.93;;;;;;;11.44;74.08;93127.34;5112379;28;20030;-38
2021/04/27 05:20:32;;;;;;;1.15;1.13;;;;;;;11.68;72.70;93122.44;5112318;28;20111;-40
2021/04/27 05:22:57;;;;;;;0.90;0.90;;;;;;;11.72;72.62;93117.25;5112382;28;20505;-39
2021/04/27 05:25:23;;;;;;;0.68;0.60;;;;;;;11.98;72.17;93116.66;5097669;28;20527;-38
2021/04/27 05:27:48;;;;;;;2.00;1.33;;;;;;;12.15;71.96;93128.50;5091283;28;20048;-39
2021/04/27 05:30:14;;;;;;;1.17;0.80;;;;;;;12.33;70.92;93137.59;5091634;28;20024;-39
2021/04/27 05:32:40;;;;;;;0.40;0.40;;;;;;;12.11;70.25;93106.03;5091271;28;20052;-39
2021/04/27 05:35:06;;;;;;;0.57;0.57;;;;;;;11.93;72.16;93098.28;5090593;28;20062;-38
2021/04/27 05:37:32;;;;;;;1.23;1.13;;;;;;;11.92;73.15;93107.88;5090824;28;20083;-39
2021/04/27 05:39:58;;;;;;;0.82;0.82;;;;;;;11.87;73.48;93089.47;5091386;28;20488;-39
2021/04/27 05:42:23;;;;;;;2.03;1.92;;;;;;;12.16;73.12;93102.31;5091414;28;20451;-39
2021/04/27 05:44:49;;;;;;;1.30;1.25;;;;;;;12.71;72.42;93106.75;5091219;28;20416;-38
2021/04/27 05:47:14;;;;;;;1.02;1.02;;;;;;;13.35;71.21;93114.66;5091253;28;20027;-39
2021/04/27 05:49:40;;;;;;;3.33;1.85;;;;;;;13.82;66.61;93096.78;5109757;28;20031;-39
2021/04/27 05:52:06;;;;;;;1.52;1.42;;;;;;;14.24;64.40;93096.47;5111542;28;20023;-38
2021/04/27 05:54:31;;;;;;;2.22;1.30;;;;;;;14.59;63.61;93097.75;5111132;28;20622;-38
2021/04/27 05:56:57;;;;;;;3.08;2.63;;;;;;;14.72;62.58;93077.13;5110116;28;20024;-37
2021/04/27 05:59:22;;;;;;;1.25;1.20;;;;;;;14.88;61.96;93084.56;5111479;28;20080;-38
2021/04/27 06:01:49;;;;;;;1.92;1.75;;;;;;;15.40;62.06;93089.66;5111277;28;20073;-39
2021/04/27 06:04:15;;;;;;;4.60;2.85;;;;;;;15.90;60.26;93091.09;5103450;28;20750;-39
2021/04/27 06:06:40;;;;;;;2.33;2.13;;;;;;;16.30;56.94;93070.09;5088553;28;20135;-39
2021/04/27 06:09:07;;;;;;;1.75;1.65;;;;;;;16.37;56.16;93075.47;5088528;28;20020;-39
2021/04/27 06:11:33;;;;;;;0.77;0.77;;;;;;;15.93;51.60;93062.09;5088555;28;20102;-38
2021/04/27 06:13:59;;;;;;;0.57;0.57;;;;;;;15.29;50.91;93043.69;5088630;28;20556;-39
2021/04/27 06:16:24;;;;;;;0.52;0.52;;;;;;;15.03;49.94;93048.13;5089802;28;20024;-39
2021/04/27 06:18:51;;;;;;;0.47;0.47;;;;;;;14.83;51.77;93055.03;5108562;28;20032;-39
2021/04/27 06:21:16;;;;;;;0.60;0.60;;;;;;;14.29;52.02;93053.84;5108664;28;20450;-38
2021/04/27 06:23:42;;;;;;;0.20;0.20;;;;;;;14.19;51.97;93053.06;5108477;28;20035;-39
2021/04/27 06:26:07;;;;;;;0.55;0.55;;;;;;;14.16;53.21;93060.50;5108120;28;20560;-39
2021/04/27 06:28:33;;;;;;;0.50;0.50;;;;;;;14.01;52.01;93060.75;5108524;28;20505;-39
2021/04/27 06:30:58;;;;;;;0.60;0.60;;;;;;;14.00;52.24;93069.66;5108690;28;20421;-38
2021/04/27 06:33:24;;;;;;;0.40;0.40;;;;;;;13.74;52.61;93078.78;5108846;28;20097;-39
2021/04/27 06:35:49;;;;;;;0.28;0.28;;;;;;;13.89;53.72;93081.31;5108165;28;20023;-39
2021/04/27 06:38:18;;;;;;;0.32;0.32;;;;;;;13.85;53.60;93081.00;5107375;28;20112;-39
2021/04/27 06:40:45;;;;;;;0.60;0.60;;;;;;;14.04;52.24;93081.81;5108245;28;20438;-38
2021/04/27 06:43:11;;;;;;;3.88;1.17;;;;;;;14.11;52.68;93099.66;5108368;28;20107;-39
2021/04/27 06:45:36;;;;;;;0.70;0.55;;;;;;;14.10;52.55;93103.72;5108470;28;20625;-39
2021/04/27 06:48:04;;;;;;;1.75;1.10;;;;;;;14.24;52.23;93096.47;5103395;28;20115;-39
2021/04/27 06:50:29;;;;;;;0.40;0.40;;;;;;;14.32;51.94;93094.31;5087891;28;20036;-39
2021/04/27 06:52:55;;;;;;;2.70;0.93;;;;;;;14.42;51.82;93101.34;5087752;28;20067;-39
2021/04/27 06:55:20;;;;;;;1.35;1.25;;;;;;;14.63;50.46;93098.03;5087225;28;20622;-39
2021/04/27 06:57:46;;;;;;;1.00;0.80;;;;;;;14.73;50.80;93106.34;5091640;28;20041;-39
2021/04/27 07:00:12;;;;;;;0.52;0.52;;;;;;;14.73;50.55;93109.13;5087513;28;20031;-39
2021/04/27 07:02:37;;;;;;;0.30;0.30;;;;;;;14.97;51.84;93119.97;5087402;28;20035;-39
2021/04/27 07:05:03;;;;;;;3.30;0.93;;;;;;;15.16;51.00;93108.84;5087570;28;20032;-40
2021/04/27 07:07:29;;;;;;;0.77;0.77;;;;;;;15.57;50.56;93108.97;5087235;28;20031;-39
2021/04/27 07:09:54;;;;;;;0.85;0.85;;;;;;;15.78;48.19;93098.66;5087446;28;20038;-39
2021/04/27 07:12:21;;;;;;;0.40;0.40;;;;;;;15.72;47.84;93089.84;5087693;28;20108;-39
2021/04/27 07:14:47;;;;;;;0.77;0.77;;;;;;;15.95;46.79;93100.47;5087796;28;20024;-39
2021/04/27 07:17:13;;;;;;;2.75;0.82;;;;;;;16.18;45.85;93086.72;5087528;28;20469;-39
2021/04/27 07:19:38;;;;;;;0.47;0.45;;;;;;;16.12;46.32;93089.09;5087424;28;20042;-39
2021/04/27 07:22:04;;;;;;;0.40;0.40;;;;;;;16.11;46.04;93095.28;5087166;28;20032;-39
2021/04/27 07:24:31;;;;;;;0.77;0.77;;;;;;;16.37;45.14;93097.06;5091965;28;20046;-40
2021/04/27 07:26:56;;;;;;;2.05;1.88;;;;;;;16.55;45.81;93089.91;5096700;28;20100;-40
2021/04/27 07:29:22;;;;;;;2.45;0.88;;;;;;;16.78;44.25;93080.97;5096220;28;20048;-40
2021/04/27 07:31:48;;;;;;;1.42;0.52;;;;;;;16.67;44.53;93076.78;5095020;28;20024;-40
2021/04/27 07:34:14;;;;;;;0.25;0.25;;;;;;;16.71;44.16;93071.47;5097223;28;20020;-40
2021/04/27 07:36:40;;;;;;;0.30;0.30;;;;;;;16.72;44.85;93069.44;5095781;28;20020;-40
2021/04/27 07:39:07;;;;;;;0.43;0.43;;;;;;;16.79;43.74;93083.16;5093929;28;20061;-39
2021/04/27 07:41:34;;;;;;;0.85;0.85;;;;;;;16.66;44.97;93076.06;5097071;28;20016;-40
2021/04/27 07:43:59;;;;;;;0.50;0.50;;;;;;;16.86;44.20;93081.47;5095883;28;20023;-40
2021/04/27 07:46:25;;;;;;;0.45;0.45;;;;;;;17.05;43.73;93061.78;5095643;28;20020;-41
2021/04/27 07:48:50;;;;;;;0.88;0.85;;;;;;;17.81;43.20;93075.00;5096741;28;20077;-40
2021/04/27 07:51:16;;;;;;;0.20;0.20;;;;;;;18.06;41.84;93082.81;5097031;28;20076;-40
2021/04/27 07:53:42;;;;;;;0.30;0.30;;;;;;;17.80;42.40;93076.34;5096024;28;20055;-40
2021/04/27 07:56:07;;;;;;;2.08;1.05;;;;;;;17.68;42.30;93075.59;5095328;28;20484;-40
2021/04/27 07:58:33;;;;;;;0.47;0.47;;;;;;;18.01;41.35;93067.13;5097354;28;20111;-39
2021/04/27 08:00:59;;;;;;;0.68;0.68;;;;;;;17.79;42.01;93057.41;5095625;28;20077;-39
2021/04/27 08:03:24;;;;;;;0.50;0.50;;;;;;;17.92;42.10;93068.72;5095728;28;20020;-40
2021/04/27 08:05:50;;;;;;;0.65;0.55;;;;;;;18.90;39.05;93062.66;5097021;28;20015;-40
2021/04/27 08:08:16;;;;;;;0.50;0.50;;;;;;;19.26;38.93;93058.38;5095170;28;20020;-41
2021/04/27 08:10:42;;;;;;;2.40;0.98;;;;;;;19.51;37.71;93055.59;5095581;28;20051;-40
2021/04/27 08:13:08;;;;;;;0.17;0.17;;;;;;;19.99;35.90;93031.56;5096394;28;20049;-40
2021/04/27 08:15:34;;;;;;;0.30;0.30;;;;;;;20.96;35.17;93045.66;5097002;28;20024;-39
2021/04/27 08:18:01;;;;;;;1.73;0.85;;;;;;;22.48;36.57;93040.13;5095905;28;20077;-40
2021/04/27 08:20:28;;;;;;;0.35;0.35;;;;;;;23.69;30.67;93040.25;5098241;28;20045;-40
2021/04/27 08:22:54;;;;;;;1.27;0.85;;;;;;;25.25;28.75;93038.19;5100709;28;20084;-42
2021/04/27 08:25:19;;;;;;;0.43;0.43;;;;;;;25.73;26.92;93033.41;5098860;28;20019;-43
2021/04/27 08:27:45;;;;;;;0.10;0.10;;;;;;;24.28;27.53;93037.59;5099392;28;20206;-40
2021/04/27 08:30:13;;;;;;;0.65;0.65;;;;;;;25.37;29.08;93030.84;5098613;28;20459;-41
2021/04/27 08:32:38;;;;;;;0.30;0.30;;;;;;;26.51;26.91;93037.91;5100231;28;20105;-41
2021/04/27 08:35:05;;;;;;;0.55;0.50;;;;;;;26.61;25.20;93038.91;5099994;28;20077;-41
2021/04/27 08:37:31;;;;;;;0.40;0.30;;;;;;;26.82;23.60;93029.59;5096128;28;20103;-42
2021/04/27 08:39:57;;;;;;;0.38;0.38;;;;;;;26.86;24.08;93021.22;5100110;28;20039;-39
2021/04/27 08:42:23;;;;;;;0.40;0.40;;;;;;;25.05;25.04;93021.31;5099741;28;20103;-41
2021/04/27 08:44:49;;;;;;;0.60;0.60;;;;;;;23.51;28.49;93021.91;5098261;28;20057;-40
2021/04/27 08:47:14;;;;;;;0.35;0.35;;;;;;;23.90;27.72;93027.69;5099938;28;20024;-40
2021/04/27 08:49:40;;;;;;;0.50;0.30;;;;;;;25.04;28.26;93025.50;5099156;28;20065;-40
2021/04/27 08:52:06;;;;;;;0.60;0.60;;;;;;;26.02;25.95;93030.06;5098253;28;20055;-42
2021/04/27 08:54:34;;;;;;;1.13;0.80;;;;;;;27.06;25.07;93012.53;5099977;28;20023;-41
2021/04/27 08:57:00;;;;;;;0.50;0.50;;;;;;;27.42;25.49;93009.91;5100303;28;20392;-41
2021/04/27 08:59:25;;;;;;;0.30;0.30;;;;;;;27.03;25.65;93008.91;5111173;28;20035;-42
2021/04/27 09:01:51;;;;;;;0.22;0.22;;;;;;;26.74;25.50;93020.16;5111321;28;20535;-44
2021/04/27 09:04:37;;;;;;;0.47;0.30;;;;;;;26.14;24.42;93014.19;5091269;28;20458;-41
2021/04/27 09:07:08;;;;;;;0.30;0.30;;;;;;;25.81;25.74;93003.28;5092163;28;20032;-41
2021/04/27 09:09:55;;;;;;;0.43;0.43;;;;;;;26.12;26.97;93002.09;5099315;28;20015;-43
2021/04/27 09:12:26;;;;;;;0.43;0.43;;;;;;;26.42;26.56;92991.66;5112713;28;20034;-41
2021/04/27 09:14:53;;;;;;;1.42;0.95;;;;;;;26.45;26.46;92992.41;5112296;28;20067;-40
2021/04/27 09:17:19;;;;;;;0.65;0.57;;;;;;;25.82;25.15;92996.22;5112223;28;20022;-41
2021/04/27 09:19:52;;;;;;;0.40;0.40;;;;;;;25.16;28.22;92999.75;5112025;28;20095;-42
2021/04/27 09:22:21;;;;;;;2.45;0.57;;;;;;;25.02;28.85;92997.19;5112436;28;20050;-40
2021/04/27 09:24:46;;;;;;;;;;;;;;;26.04;26.93;92993.34;5112616;28;20023;-42
2021/04/27 09:27:24;;;;;;;0.43;0.43;;;;;;;26.66;24.62;92975.31;5111845;28;20326;-41
2021/04/27 09:29:49;;;;;;;0.30;0.30;;;;;;;27.39;27.29;92997.06;5111408;28;20019;-42
2021/04/27 09:32:29;;;;;;;1.55;0.38;;;;;;;27.51;24.12;92991.69;5112304;28;20512;-41
2021/04/27 09:34:55;;;;;;;0.15;0.15;;;;;;;27.85;21.92;92998.19;5112028;28;20026;-41
2021/04/27 09:37:20;;;;;;;0.65;0.60;;;;;;;28.09;22.11;93003.72;5111856;27;20020;-41
2021/04/27 09:39:47;;;;;;;3.95;0.45;;;;;;;28.32;21.30;93005.63;5096038;28;20031;-41
2021/04/27 09:42:21;;;;;;;0.13;0.13;;;;;;;27.97;21.68;93009.06;5098246;28;20032;-40
2021/04/27 09:44:51;;;;;;;0.55;0.55;;;;;;;27.56;24.34;93007.41;5105182;28;20152;-40
2021/04/27 09:47:26;;;;;;;0.63;0.52;;;;;;;27.55;24.13;92994.63;5111505;28;20545;-40
2021/04/27 09:50:10;;;;;;;1.85;0.85;;;;;;;26.66;25.08;92997.28;5097523;28;20134;-41
2021/04/27 09:52:44;;;;;;;0.75;0.40;;;;;;;26.10;26.51;92996.38;5091373;28;20020;-40
2021/04/27 09:55:16;;;;;;;0.50;0.50;;;;;;;25.18;25.14;92999.81;5091247;28;20408;-41
2021/04/27 09:57:53;;;;;;;2.55;0.65;;;;;;;24.84;26.10;92986.00;5090939;28;20038;-40
2021/04/27 10:00:28;;;;;;;0.73;0.73;;;;;;;24.04;28.70;92983.06;5091287;28;20028;-40
2021/04/27 10:02:55;;;;;;;0.30;0.30;;;;;;;23.66;30.05;92978.81;5090781;28;20122;-41
2021/04/27 10:05:21;;;;;;;0.85;0.85;;;;;;;23.52;31.62;92969.84;5106848;28;20028;-43
2021/04/27 10:07:47;;;;;;;2.30;0.52;;;;;;;23.60;31.42;92965.25;5090676;28;20043;-40
2021/04/27 10:10:15;;;;;;;0.77;0.77;;;;;;;23.49;29.67;92948.59;5090729;28;20056;-40
2021/04/27 10:12:41;;;;;;;1.10;1.07;;;;;;;23.50;27.92;92945.09;5099220;28;20106;-40
2021/04/27 10:15:08;;;;;;;7.13;3.58;;;;;;;22.26;30.21;92938.63;5100136;28;20543;-40
2021/04/27 10:17:34;;;;;;;3.72;1.35;;;;;;;22.09;30.89;92928.03;5099410;28;20427;-40
2021/04/27 10:20:00;;;;;;;0.30;0.30;;;;;;;21.90;31.89;92925.81;5100074;28;20020;-42
2021/04/27 10:22:27;;;;;;;0.35;0.35;;;;;;;21.61;30.93;92925.91;5106286;28;20033;-41
2021/04/27 10:24:54;;;;;;;0.20;0.20;;;;;;;21.59;30.54;92911.75;5101818;28;20504;-43
2021/04/27 10:27:25;;;;;;;0.30;0.30;;;;;;;20.95;31.86;92912.28;5094319;28;20051;-41
2021/04/27 10:29:55;;;;;;;2.63;0.95;;;;;;;20.92;32.93;92917.06;5095601;28;20102;-39
2021/04/27 10:32:27;;;;;;;0.30;0.30;;;;;;;21.10;32.40;92915.16;5102338;28;20504;-40
2021/04/27 10:34:58;;;;;;;0.80;0.50;;;;;;;20.83;31.79;92920.88;5106979;28;20030;-40
2021/04/27 10:37:27;;;;;;;0.20;0.20;;;;;;;20.33;32.60;92941.56;5101215;28;20020;-40
2021/04/27 10:39:52;;;;;;;0.20;0.20;;;;;;;20.10;33.08;92941.00;5095893;28;20409;-40
2021/04/27 10:42:19;;;;;;;1.30;0.93;;;;;;;19.94;33.56;92957.03;5101094;28;20054;-40
2021/04/27 10:44:51;;;;;;;0.55;0.55;;;;;;;19.69;35.78;92963.44;5105202;28;20445;-40
2021/04/27 10:47:17;;;;;;;1.02;0.68;;;;;;;19.47;34.08;92909.03;5102972;28;20473;-41
2021/04/27 10:49:44;;;;;;;3.15;1.65;;;;;;;19.81;33.79;92975.28;5106931;28;20069;-40
2021/04/27 10:52:26;;;;;;;0.77;0.77;;;;;;;19.71;34.28;92980.34;5110210;28;20042;-39
2021/04/27 10:54:51;;;;;;;0.17;0.17;;;;;;;19.49;35.62;92979.16;5110575;28;20023;-40
2021/04/27 10:57:18;;;;;;;0.50;0.50;;;;;;;19.38;36.16;92982.78;5110625;28;20513;-40
2021/04/27 11:00:02;;;;;;;0.45;0.45;;;;;;;19.44;34.40;92992.22;5101198;28;20031;-41
2021/04/27 11:02:31;;;;;;;0.20;0.20;;;;;;;19.33;36.11;92984.59;5088240;28;20157;-39
2021/04/27 11:05:01;;;;;;;0.10;0.10;;;;;;;19.33;35.27;92993.00;5086939;28;20035;-39
2021/04/27 11:07:26;;;;;;;3.13;2.00;;;;;;;19.37;35.08;92981.31;5099814;28;20031;-40
2021/04/27 11:09:57;;;;;;;0.30;0.30;;;;;;;19.50;35.48;92986.94;5106572;28;20042;-39
2021/04/27 11:12:29;;;;;;;0.57;0.55;;;;;;;19.30;35.61;92997.03;5106451;28;20024;-39
2021/04/27 11:15:01;;;;;;;0.15;0.15;;;;;;;19.14;36.68;92984.22;5106958;28;20452;-39
2021/04/27 11:17:32;;;;;;;0.68;0.68;;;;;;;18.71;39.81;92979.03;5096148;28;20103;-40
2021/04/27 11:19:58;;;;;;;0.20;0.20;;;;;;;18.85;37.18;92977.06;5096889;28;20065;-40
2021/04/27 11:22:29;;;;;;;0.68;0.65;;;;;;;18.88;39.26;92989.78;5097185;28;20024;-41
2021/04/27 11:24:55;;;;;;;0.45;0.45;;;;;;;18.68;38.44;92997.06;5097341;28;20039;-40
2021/04/27 11:27:33;;;;;;;2.35;0.77;;;;;;;18.37;41.13;92995.91;5094430;28;20079;-40
2021/04/27 11:30:16;;;;;;;1.50;1.40;;;;;;;18.16;46.52;92994.00;5097010;28;20031;-39
2021/04/27 11:32:43;;;;;;;1.75;0.85;;;;;;;18.25;45.47;92992.41;5096928;28;20087;-40